Time;durP1;ratioP1;P1;durP2;ratioP2;P2;SDS_P1;SDS_P2;PMS_P1;PMS_P2;Temp;Humidity;BMP_temperature;BMP_pressure;BME280_temperature;BME280_humidity;BME280_pressure;Samples;Min_cycle;Max_cycle;Signal;HPM_P1;HPM_P2
2021/03/16 00:01:40;;;;;;;13.87;3.63;;;;;;;4.37;75.34;100791.38;5110864;27;20237;-67
2021/03/16 00:04:06;;;;;;;11.90;3.13;;;;;;;4.36;75.44;100789.66;5117551;27;20207;-67
2021/03/16 00:06:32;;;;;;;12.00;3.07;;;;;;;4.34;76.26;100786.22;5117139;27;20210;-67
2021/03/16 00:08:58;;;;;;;12.10;3.60;;;;;;;4.34;75.95;100794.13;5108366;27;20257;-67
2021/03/16 00:11:24;;;;;;;13.27;3.03;;;;;;;4.32;76.13;100794.19;5110831;28;20223;-67
2021/03/16 00:13:51;;;;;;;16.70;4.03;;;;;;;4.31;75.68;100791.59;5112411;28;20229;-67
2021/03/16 00:16:19;;;;;;;14.67;3.50;;;;;;;4.30;76.21;100797.81;5097533;28;20204;-67
2021/03/16 00:18:45;;;;;;;15.37;3.30;;;;;;;4.30;76.26;100808.34;5115941;28;20203;-67
2021/03/16 00:21:11;;;;;;;9.50;3.00;;;;;;;4.27;76.12;100801.41;5117671;27;20488;-68
2021/03/16 00:23:37;;;;;;;10.87;3.40;;;;;;;4.29;76.57;100817.19;5116000;27;20558;-68
2021/03/16 00:26:03;;;;;;;14.53;3.43;;;;;;;4.29;75.95;100809.28;5116915;27;20199;-67
2021/03/16 00:28:29;;;;;;;8.33;3.77;;;;;;;4.26;76.41;100804.97;5117021;27;20338;-67
2021/03/16 00:30:56;;;;;;;13.03;4.03;;;;;;;4.27;76.36;100811.09;5104407;27;20219;-67
2021/03/16 00:33:22;;;;;;;11.43;3.60;;;;;;;4.25;75.89;100819.06;5111616;22;20260;-66
2021/03/16 00:35:49;;;;;;;11.67;4.07;;;;;;;4.23;76.45;100817.38;5094899;28;20673;-66
2021/03/16 00:38:15;;;;;;;8.13;3.23;;;;;;;4.22;76.25;100824.44;5096823;28;20578;-66
2021/03/16 00:40:41;;;;;;;11.00;3.27;;;;;;;4.21;76.25;100821.84;5096773;28;20208;-66
2021/03/16 00:43:07;;;;;;;9.93;3.10;;;;;;;4.18;75.77;100826.31;5089546;28;20220;-66
2021/03/16 00:45:33;;;;;;;6.23;2.87;;;;;;;4.17;76.48;100827.22;5089582;28;20200;-66
2021/03/16 00:48:00;;;;;;;6.60;3.03;;;;;;;4.18;76.07;100830.72;5090313;28;20210;-68
2021/03/16 00:50:26;;;;;;;11.63;3.47;;;;;;;4.17;75.83;100834.25;5094858;28;20726;-66
2021/03/16 00:52:52;;;;;;;15.20;3.67;;;;;;;4.17;75.71;100839.53;5093462;28;20318;-67
2021/03/16 00:55:19;;;;;;;12.13;3.57;;;;;;;4.17;76.36;100843.03;5084757;28;20310;-67
2021/03/16 00:57:45;;;;;;;15.63;4.53;;;;;;;4.16;75.89;100843.09;5088389;28;20200;-66
2021/03/16 01:00:12;;;;;;;15.17;4.63;;;;;;;4.18;76.56;100843.91;5090033;28;20304;-66
2021/03/16 01:02:38;;;;;;;9.53;4.00;;;;;;;4.16;75.55;100846.56;5091205;28;20583;-65
2021/03/16 01:05:06;;;;;;;15.77;3.77;;;;;;;4.15;76.42;100850.13;5090898;28;20670;-65
2021/03/16 01:07:32;;;;;;;9.73;5.00;;;;;;;4.14;76.49;100853.69;5095087;28;20236;-65
2021/03/16 01:09:58;;;;;;;11.00;3.87;;;;;;;4.15;76.39;100859.81;5084557;28;20211;-65
2021/03/16 01:12:24;;;;;;;18.60;5.60;;;;;;;4.14;76.34;100864.22;5083731;28;20224;-63
2021/03/16 01:14:50;;;;;;;11.57;4.60;;;;;;;4.13;76.52;100849.31;5080890;28;20211;-64
2021/03/16 01:17:16;;;;;;;15.70;5.17;;;;;;;4.14;76.20;100863.34;5074117;28;20670;-65
2021/03/16 01:19:42;;;;;;;18.73;4.93;;;;;;;4.13;76.08;100872.19;5085656;28;20361;-65
2021/03/16 01:22:09;;;;;;;13.50;3.97;;;;;;;4.10;76.38;100867.91;5078966;28;20228;-65
2021/03/16 01:24:35;;;;;;;9.83;3.37;;;;;;;4.10;76.10;100870.53;5087518;28;20287;-65
2021/03/16 01:27:02;;;;;;;11.90;3.87;;;;;;;4.09;76.16;100883.75;5082698;28;20205;-65
2021/03/16 01:29:28;;;;;;;9.73;3.80;;;;;;;4.07;75.75;100883.81;5085437;28;20258;-65
2021/03/16 01:31:54;;;;;;;7.57;3.53;;;;;;;4.04;76.55;100878.63;5079298;28;20228;-64
2021/03/16 01:34:20;;;;;;;10.10;3.90;;;;;;;4.03;76.07;100887.44;5082265;28;20210;-65
2021/03/16 01:36:46;;;;;;;13.07;5.03;;;;;;;4.02;75.78;100883.09;5089439;28;20211;-65
2021/03/16 01:39:13;;;;;;;15.27;3.73;;;;;;;4.01;76.28;100885.75;5090159;28;20211;-65
2021/03/16 01:41:39;;;;;;;9.63;3.77;;;;;;;3.98;76.21;100894.63;5083898;28;20624;-65
2021/03/16 01:44:05;;;;;;;12.23;3.50;;;;;;;3.96;76.59;100895.59;5086432;28;20206;-65
2021/03/16 01:46:31;;;;;;;10.93;3.40;;;;;;;3.96;76.01;100885.91;5080284;28;20209;-65
2021/03/16 01:48:58;;;;;;;10.00;3.30;;;;;;;3.95;76.07;100886.81;5079130;28;20694;-65
2021/03/16 01:51:24;;;;;;;9.80;2.90;;;;;;;3.94;75.95;100890.34;5090692;28;20594;-65
2021/03/16 01:53:50;;;;;;;11.33;2.90;;;;;;;3.93;76.16;100887.81;5084400;28;20220;-65
2021/03/16 01:56:19;;;;;;;11.53;2.80;;;;;;;3.91;76.33;100887.84;5086877;28;20208;-65
2021/03/16 01:58:47;;;;;;;7.60;3.23;;;;;;;3.91;76.05;100894.91;5084752;28;20200;-65
2021/03/16 02:01:13;;;;;;;10.87;2.37;;;;;;;3.87;76.11;100888.84;5080988;28;20284;-65
2021/03/16 02:03:39;;;;;;;12.67;2.70;;;;;;;3.85;76.49;100893.31;5079932;28;20228;-65
2021/03/16 02:06:10;;;;;;;12.47;3.40;;;;;;;3.83;76.28;100898.63;5089746;28;20208;-65
2021/03/16 02:08:45;;;;;;;12.53;3.10;;;;;;;3.80;75.91;100900.47;5080764;28;20288;-65
2021/03/16 02:11:18;;;;;;;11.63;2.70;;;;;;;3.78;76.63;100900.53;5092827;28;20230;-65
2021/03/16 02:13:54;;;;;;;5.90;1.93;;;;;;;3.74;76.31;100896.28;5084101;28;20594;-65
2021/03/16 02:16:26;;;;;;;10.20;2.37;;;;;;;3.71;76.04;100899.00;5086402;28;20298;-66
2021/03/16 02:18:56;;;;;;;12.33;2.10;;;;;;;3.68;76.07;100895.59;5086792;28;20192;-65
2021/03/16 02:21:26;;;;;;;12.20;2.50;;;;;;;3.63;76.22;100897.50;5077351;28;20209;-65
2021/03/16 02:24:19;;;;;;;11.73;2.20;;;;;;;3.58;76.13;100909.97;5077849;28;20780;-65
2021/03/16 02:27:03;;;;;;;12.67;2.90;;;;;;;3.53;75.96;100915.38;5089639;28;20201;-66
2021/03/16 02:29:35;;;;;;;12.43;2.83;;;;;;;3.47;76.75;100912.94;5080501;28;20205;-66
2021/03/16 02:32:05;;;;;;;10.97;2.80;;;;;;;3.44;76.86;100918.28;5087850;28;20229;-66
2021/03/16 02:34:35;;;;;;;9.33;2.50;;;;;;;3.39;76.19;100912.31;5074926;28;20664;-66
2021/03/16 02:37:04;;;;;;;12.53;2.63;;;;;;;3.35;76.23;100915.94;5081794;28;20231;-65
2021/03/16 02:39:32;;;;;;;13.17;2.87;;;;;;;3.29;76.87;100924.84;5078275;28;20247;-65
2021/03/16 02:42:01;;;;;;;10.47;2.57;;;;;;;3.25;77.34;100925.84;5083113;28;20216;-65
2021/03/16 02:44:28;;;;;;;14.20;2.97;;;;;;;3.23;77.37;100934.69;5078329;28;20288;-65
2021/03/16 02:46:55;;;;;;;16.80;2.50;;;;;;;3.19;77.48;100933.06;5078538;28;20218;-65
2021/03/16 02:49:22;;;;;;;10.33;2.57;;;;;;;3.15;77.70;100934.94;5084083;28;20218;-66
2021/03/16 02:51:51;;;;;;;9.40;2.90;;;;;;;3.11;77.26;100935.91;5083019;28;20273;-66
2021/03/16 02:54:19;;;;;;;13.57;2.83;;;;;;;3.08;77.70;100946.53;5081952;28;20227;-65
2021/03/16 02:56:48;;;;;;;9.80;2.67;;;;;;;3.05;76.85;100943.97;5086811;28;20206;-65
2021/03/16 02:59:17;;;;;;;10.57;2.60;;;;;;;3.02;77.40;100938.81;5084514;28;20294;-65
2021/03/16 03:01:44;;;;;;;11.00;2.70;;;;;;;3.00;77.17;100948.50;5087709;28;20205;-65
2021/03/16 03:04:11;;;;;;;9.83;2.83;;;;;;;2.96;77.85;100944.25;5085936;28;20204;-65
2021/03/16 03:06:39;;;;;;;8.63;2.50;;;;;;;2.93;77.51;100946.94;5082747;28;20236;-66
2021/03/16 03:09:07;;;;;;;7.50;1.90;;;;;;;2.90;77.96;100947.88;5081196;28;20203;-65
2021/03/16 03:11:34;;;;;;;8.73;2.23;;;;;;;2.88;77.29;100954.94;5071185;28;20235;-63
2021/03/16 03:14:01;;;;;;;15.03;3.83;;;;;;;2.86;77.41;100955.94;5081500;28;20239;-66
2021/03/16 03:16:28;;;;;;;12.73;2.97;;;;;;;2.83;78.32;100962.13;5089530;28;20235;-65
2021/03/16 03:18:55;;;;;;;9.20;2.40;;;;;;;2.81;78.01;100968.34;5088484;28;20222;-66
2021/03/16 03:21:33;;;;;;;8.73;2.13;;;;;;;2.78;77.71;100970.13;5087836;28;20211;-65
2021/03/16 03:24:05;;;;;;;12.27;2.60;;;;;;;2.76;78.55;100969.31;5073842;28;20678;-65
2021/03/16 03:26:42;;;;;;;14.63;2.60;;;;;;;2.74;78.21;100971.09;5084721;28;20719;-66
2021/03/16 03:29:10;;;;;;;14.10;2.73;;;;;;;2.73;78.15;100987.78;5071021;28;20706;-65
2021/03/16 03:31:38;;;;;;;12.20;2.50;;;;;;;2.71;78.39;100996.63;5084471;28;20311;-65
2021/03/16 03:34:05;;;;;;;14.10;2.50;;;;;;;2.69;77.89;100991.41;5076336;28;20689;-64
2021/03/16 03:36:35;;;;;;;11.30;2.50;;;;;;;2.68;78.20;100989.69;5090565;28;20215;-65
2021/03/16 03:39:02;;;;;;;20.23;4.63;;;;;;;2.70;78.64;100997.53;5087873;28;20196;-65
2021/03/16 03:41:28;;;;;;;11.23;2.73;;;;;;;2.70;79.11;100994.88;5091176;28;20597;-66
2021/03/16 03:43:56;;;;;;;8.37;2.63;;;;;;;2.73;78.83;100994.81;5087091;28;20739;-65
2021/03/16 03:46:22;;;;;;;12.30;2.90;;;;;;;2.76;79.36;100992.97;5071110;28;20212;-66
2021/03/16 03:48:49;;;;;;;14.20;3.17;;;;;;;2.78;79.46;101006.09;5070828;28;20211;-65
2021/03/16 03:51:18;;;;;;;14.30;3.27;;;;;;;2.78;79.65;100996.44;5076906;28;20228;-64
2021/03/16 03:53:46;;;;;;;15.30;4.40;;;;;;;2.81;79.77;101008.66;5077490;28;20274;-65
2021/03/16 03:56:12;;;;;;;16.07;3.90;;;;;;;2.81;79.09;101008.66;5074256;28;20216;-65
2021/03/16 03:58:39;;;;;;;19.10;4.70;;;;;;;2.81;79.87;101010.41;5077631;28;20663;-65
2021/03/16 04:01:06;;;;;;;11.87;3.60;;;;;;;2.82;79.28;101012.16;5082520;28;20307;-65
2021/03/16 04:03:33;;;;;;;15.40;4.13;;;;;;;2.82;79.74;101017.41;5073302;28;20224;-65
2021/03/16 04:06:00;;;;;;;8.80;3.50;;;;;;;2.82;79.42;101020.91;5072770;28;20636;-65
2021/03/16 04:08:27;;;;;;;12.63;3.67;;;;;;;2.83;79.50;101021.75;5079615;28;20264;-65
2021/03/16 04:10:54;;;;;;;10.73;4.07;;;;;;;2.83;79.99;101032.28;5089880;28;20937;-65
2021/03/16 04:13:21;;;;;;;12.20;4.20;;;;;;;2.81;79.78;101032.31;5082446;28;20664;-65
2021/03/16 04:15:48;;;;;;;19.23;4.83;;;;;;;2.82;79.58;101033.19;5072053;28;20265;-66
2021/03/16 04:18:14;;;;;;;18.70;4.73;;;;;;;2.83;79.72;101034.91;5070215;28;20201;-66
2021/03/16 04:20:41;;;;;;;11.90;3.63;;;;;;;2.82;80.18;101038.44;5069733;28;20677;-65
2021/03/16 04:23:08;;;;;;;12.57;4.00;;;;;;;2.81;80.55;101034.94;5087300;28;20250;-65
2021/03/16 04:25:34;;;;;;;15.87;5.50;;;;;;;2.82;80.23;101043.72;5080262;28;20204;-65
2021/03/16 04:28:01;;;;;;;12.87;4.30;;;;;;;2.81;80.79;101040.22;5078893;28;20312;-65
2021/03/16 04:30:27;;;;;;;14.67;4.30;;;;;;;2.82;80.71;101043.72;5082749;28;20211;-65
2021/03/16 04:32:53;;;;;;;11.93;4.40;;;;;;;2.81;80.21;101037.59;5075938;28;20224;-65
2021/03/16 04:35:19;;;;;;;16.33;5.03;;;;;;;2.82;80.83;101051.59;5084972;28;20570;-66
2021/03/16 04:37:45;;;;;;;15.17;5.03;;;;;;;2.82;80.78;101048.97;5088633;28;20214;-66
2021/03/16 04:40:12;;;;;;;15.17;6.13;;;;;;;2.82;80.48;101046.34;5077902;28;20205;-66
2021/03/16 04:42:38;;;;;;;12.33;5.00;;;;;;;2.81;80.43;101048.09;5073227;28;20279;-66
2021/03/16 04:45:07;;;;;;;22.47;7.43;;;;;;;2.82;80.48;101048.97;5080740;28;20207;-65
2021/03/16 04:47:33;;;;;;;14.03;5.17;;;;;;;2.82;80.29;101055.09;5079747;28;20666;-66
2021/03/16 04:49:59;;;;;;;14.97;6.00;;;;;;;2.79;80.52;101050.78;5074538;28;20288;-65
2021/03/16 04:52:25;;;;;;;18.40;5.53;;;;;;;2.78;80.38;101059.56;5087765;28;20336;-65
2021/03/16 04:54:52;;;;;;;14.33;5.00;;;;;;;2.77;80.40;101063.09;5082338;28;20713;-65
2021/03/16 04:57:18;;;;;;;15.40;5.03;;;;;;;2.76;80.91;101069.25;5086721;28;20638;-65
2021/03/16 04:59:44;;;;;;;13.70;6.17;;;;;;;2.74;80.68;101071.06;5088454;28;20229;-65
2021/03/16 05:02:13;;;;;;;21.20;5.87;;;;;;;2.75;80.94;101075.41;5091511;28;20503;-66
2021/03/16 05:04:39;;;;;;;18.70;6.03;;;;;;;2.75;81.05;101075.41;5084381;28;20582;-66
2021/03/16 05:07:05;;;;;;;22.57;5.63;;;;;;;2.75;80.62;101075.41;5076680;28;20218;-65
2021/03/16 05:09:31;;;;;;;14.30;6.10;;;;;;;2.74;81.11;101081.56;5076674;28;20307;-66
2021/03/16 05:11:57;;;;;;;14.63;5.87;;;;;;;2.71;80.99;101084.28;5087724;28;20228;-65
2021/03/16 05:14:23;;;;;;;18.93;7.17;;;;;;;2.70;80.43;101086.94;5091568;28;20291;-64
2021/03/16 05:16:50;;;;;;;15.50;6.60;;;;;;;2.67;80.52;101090.53;5079154;28;20205;-65
2021/03/16 05:19:16;;;;;;;17.10;7.00;;;;;;;2.68;81.18;101094.88;5077724;28;20696;-65
2021/03/16 05:21:43;;;;;;;14.83;6.03;;;;;;;2.67;80.95;101103.69;5073699;28;20738;-67
2021/03/16 05:24:09;;;;;;;11.43;6.37;;;;;;;2.67;80.45;101108.94;5087815;28;20205;-67
2021/03/16 05:26:35;;;;;;;18.50;6.60;;;;;;;2.66;80.30;101112.47;5080229;28;20249;-64
2021/03/16 05:29:02;;;;;;;15.63;6.87;;;;;;;2.66;80.78;101106.34;5078008;28;20219;-65
2021/03/16 05:31:28;;;;;;;17.70;7.37;;;;;;;2.67;80.78;101108.06;5082809;28;20693;-65
2021/03/16 05:33:54;;;;;;;16.50;7.23;;;;;;;2.67;80.42;101115.97;5081079;28;20371;-65
2021/03/16 05:36:21;;;;;;;17.07;6.27;;;;;;;2.68;81.07;101118.56;5080328;28;20228;-65
2021/03/16 05:38:47;;;;;;;15.20;7.00;;;;;;;2.67;80.58;101124.72;5077320;28;20208;-66
2021/03/16 05:41:14;;;;;;;17.10;7.00;;;;;;;2.67;80.85;101129.97;5075877;28;20196;-66
2021/03/16 05:43:40;;;;;;;16.17;6.77;;;;;;;2.69;80.20;101122.03;5075082;28;20653;-65
2021/03/16 05:46:07;;;;;;;22.03;7.17;;;;;;;2.68;80.84;101126.44;5074098;28;20201;-65
2021/03/16 05:48:37;;;;;;;13.50;7.17;;;;;;;2.69;80.58;101133.41;5078522;28;20197;-65
2021/03/16 05:51:03;;;;;;;16.03;7.07;;;;;;;2.71;80.51;101130.75;5079320;28;20295;-65
2021/03/16 05:53:31;;;;;;;17.73;7.77;;;;;;;2.71;80.26;101134.25;5071994;28;20724;-65
2021/03/16 05:55:59;;;;;;;24.77;7.27;;;;;;;2.72;80.49;101143.84;5075396;28;20644;-66
2021/03/16 05:58:25;;;;;;;19.57;7.80;;;;;;;2.73;80.33;101139.47;5073393;28;20666;-65
2021/03/16 06:00:51;;;;;;;18.53;6.57;;;;;;;2.74;80.66;101138.56;5076397;28;20675;-63
2021/03/16 06:03:18;;;;;;;15.43;6.97;;;;;;;2.75;80.20;101146.44;5074678;28;20217;-67
2021/03/16 06:05:44;;;;;;;20.27;7.13;;;;;;;2.78;80.73;101145.50;5074742;28;20661;-66
2021/03/16 06:08:10;;;;;;;13.50;6.73;;;;;;;2.79;80.51;101140.19;5077153;28;20265;-65
2021/03/16 06:10:37;;;;;;;19.27;7.13;;;;;;;2.82;80.68;101139.25;5075703;28;20204;-64
2021/03/16 06:13:14;;;;;;;15.17;6.93;;;;;;;2.84;80.77;101144.50;5074434;28;20232;-65
2021/03/16 06:15:42;;;;;;;15.77;6.40;;;;;;;2.86;80.86;101143.56;5073833;28;20200;-65
2021/03/16 06:18:10;;;;;;;16.17;6.33;;;;;;;2.88;80.96;101152.25;5081656;28;20483;-65
2021/03/16 06:20:37;;;;;;;16.87;6.27;;;;;;;2.90;80.68;101144.31;5078934;28;20272;-65
2021/03/16 06:23:08;;;;;;;21.60;6.50;;;;;;;2.92;80.03;101150.41;5086717;28;20216;-65
2021/03/16 06:25:36;;;;;;;17.67;6.70;;;;;;;2.94;80.99;101140.72;5087555;28;20211;-65
2021/03/16 06:28:05;;;;;;;20.87;7.20;;;;;;;2.97;80.98;101148.56;5086472;28;20204;-65
2021/03/16 06:30:31;;;;;;;17.10;6.83;;;;;;;3.00;80.37;101149.34;5082558;28;20308;-66
2021/03/16 06:32:58;;;;;;;24.20;7.20;;;;;;;3.02;80.50;101150.19;5106621;22;20248;-68
2021/03/16 06:35:25;;;;;;;17.73;7.17;;;;;;;3.05;80.57;101152.72;5091354;28;20204;-67
2021/03/16 06:38:02;;;;;;;14.00;6.37;;;;;;;3.08;80.53;101152.63;5084653;28;20654;-67
2021/03/16 06:40:29;;;;;;;18.70;7.60;;;;;;;3.11;80.23;101155.19;5086116;28;20280;-67
2021/03/16 06:43:07;;;;;;;16.10;8.23;;;;;;;3.13;80.27;101156.03;5085999;28;20239;-66
2021/03/16 06:45:35;;;;;;;15.43;5.90;;;;;;;3.17;80.68;101162.09;5084966;28;20203;-66
2021/03/16 06:48:12;;;;;;;18.87;6.50;;;;;;;3.21;80.91;101161.13;5090596;28;20200;-67
2021/03/16 06:50:38;;;;;;;16.00;5.23;;;;;;;3.24;80.91;101168.03;5088803;28;20335;-67
2021/03/16 06:53:04;;;;;;;13.27;4.97;;;;;;;3.28;80.91;101169.72;5086168;28;20314;-67
2021/03/16 06:55:30;;;;;;;19.07;6.97;;;;;;;3.32;80.58;101181.91;5089224;28;20654;-67
2021/03/16 06:58:05;;;;;;;18.43;5.83;;;;;;;3.35;80.89;101180.06;5085917;28;20208;-67
2021/03/16 07:00:31;;;;;;;20.90;6.73;;;;;;;3.40;81.02;101178.16;5087448;28;20682;-66
2021/03/16 07:02:57;;;;;;;19.67;6.70;;;;;;;3.44;80.18;101181.56;5086924;28;20307;-66
2021/03/16 07:05:28;;;;;;;18.77;5.37;;;;;;;3.47;80.84;101185.00;5081450;28;20200;-66
2021/03/16 07:07:55;;;;;;;19.13;5.73;;;;;;;3.51;80.85;101187.56;5088852;28;20704;-66
2021/03/16 07:10:23;;;;;;;13.07;5.23;;;;;;;3.55;80.19;101186.59;5088273;28;20569;-66
2021/03/16 07:12:49;;;;;;;18.07;5.17;;;;;;;3.58;80.05;101189.16;5085868;28;20282;-66
2021/03/16 07:15:17;;;;;;;14.77;4.10;;;;;;;3.60;80.46;101187.31;5085890;28;20674;-66
2021/03/16 07:17:44;;;;;;;13.93;4.67;;;;;;;3.64;80.28;101189.84;5085794;28;20204;-66
2021/03/16 07:20:13;;;;;;;12.73;5.77;;;;;;;3.67;80.59;101188.88;5088243;28;20208;-66
2021/03/16 07:22:49;;;;;;;11.60;4.83;;;;;;;3.70;80.42;101194.94;5088156;28;20219;-66
2021/03/16 07:25:16;;;;;;;9.60;4.47;;;;;;;3.75;79.64;101192.19;5088603;28;20290;-67
2021/03/16 07:27:42;;;;;;;15.43;4.37;;;;;;;3.80;80.29;101190.28;5087285;28;20227;-67
2021/03/16 07:32:44;;;;;;;14.43;4.60;;;;;;;3.90;79.80;101197.06;5044359;22;20316;-66
2021/03/16 07:35:11;;;;;;;11.83;3.87;;;;;;;3.96;79.67;101191.59;4989170;28;20336;-67
2021/03/16 07:37:38;;;;;;;20.80;6.37;;;;;;;3.99;79.59;101186.25;4988905;28;20475;-66
2021/03/16 07:40:07;;;;;;;18.23;7.03;;;;;;;4.06;80.08;101186.94;4987641;28;20209;-67
2021/03/16 07:42:35;;;;;;;17.40;4.33;;;;;;;4.12;79.24;101187.63;4988090;28;20654;-67
2021/03/16 07:45:01;;;;;;;14.67;3.53;;;;;;;4.19;79.66;101180.41;5042670;22;20240;-64
2021/03/16 07:47:35;;;;;;;13.80;3.37;;;;;;;4.26;79.34;101191.66;5023805;28;20206;-65
2021/03/16 07:50:05;;;;;;;14.10;3.40;;;;;;;4.31;79.16;101192.38;5026714;28;20202;-65
2021/03/16 07:52:31;;;;;;;11.27;3.20;;;;;;;4.38;79.61;101196.56;5027508;28;20222;-66
2021/03/16 07:54:57;;;;;;;9.30;3.57;;;;;;;4.43;78.61;101192.03;5026814;28;20230;-64
2021/03/16 07:57:27;;;;;;;10.60;2.90;;;;;;;4.47;79.25;101191.91;5022252;28;20300;-64
2021/03/16 07:59:58;;;;;;;12.33;3.30;;;;;;;4.52;78.38;101197.88;5023988;28;20591;-65
2021/03/16 08:02:27;;;;;;;8.60;2.40;;;;;;;4.60;78.45;101202.94;5024095;28;20201;-63
2021/03/16 08:04:53;;;;;;;9.70;3.27;;;;;;;4.67;78.61;101206.25;5023511;28;20710;-65
2021/03/16 08:07:22;;;;;;;15.77;3.27;;;;;;;4.72;78.46;101205.19;5028357;28;20217;-65
2021/03/16 08:09:51;;;;;;;11.77;2.93;;;;;;;4.82;77.68;101208.44;5028785;28;20268;-64
2021/03/16 08:12:20;;;;;;;6.70;2.80;;;;;;;4.89;77.68;101212.59;5020885;28;20222;-65
2021/03/16 08:14:47;;;;;;;9.83;2.80;;;;;;;4.97;77.61;101215.00;5024154;28;20222;-65
2021/03/16 08:17:13;;;;;;;13.50;3.17;;;;;;;5.03;77.17;101215.66;5023222;28;20687;-65
2021/03/16 08:19:40;;;;;;;10.03;3.10;;;;;;;5.10;77.15;101222.50;5022244;28;20301;-65
2021/03/16 08:22:10;;;;;;;9.93;2.60;;;;;;;5.13;77.08;101217.13;5026058;28;20206;-65
2021/03/16 08:24:38;;;;;;;8.70;2.60;;;;;;;5.16;76.68;101222.31;5027931;28;20283;-64
2021/03/16 08:27:07;;;;;;;10.73;2.23;;;;;;;5.16;76.06;101224.94;5028558;28;20202;-64
2021/03/16 08:29:34;;;;;;;8.80;2.30;;;;;;;5.16;75.54;101226.72;5023765;28;20257;-65
2021/03/16 08:32:00;;;;;;;10.63;2.00;;;;;;;5.17;76.05;101226.69;5025836;28;20313;-66
2021/03/16 08:34:28;;;;;;;7.77;1.93;;;;;;;5.18;75.52;101220.50;5026495;28;20198;-65
2021/03/16 08:36:54;;;;;;;10.90;2.00;;;;;;;5.20;75.09;101228.34;5024058;28;20560;-64
2021/03/16 08:39:22;;;;;;;12.43;2.23;;;;;;;5.20;75.15;101237.13;5021709;28;20217;-65
2021/03/16 08:41:57;;;;;;;4.53;1.33;;;;;;;5.26;75.04;101232.56;5026612;28;20227;-67
2021/03/16 08:44:23;;;;;;;5.13;1.20;;;;;;;5.28;74.36;101228.09;5023728;28;20240;-65
2021/03/16 08:46:50;;;;;;;4.57;1.37;;;;;;;5.29;74.38;101232.47;5025009;28;20285;-64
2021/03/16 08:49:17;;;;;;;5.50;1.20;;;;;;;5.31;74.13;101230.66;5027426;28;20198;-65
2021/03/16 08:51:44;;;;;;;7.70;1.40;;;;;;;5.32;73.99;101227.97;5026307;28;20236;-64
2021/03/16 08:54:10;;;;;;;9.50;1.50;;;;;;;5.33;73.77;101248.19;5025994;28;20206;-64
2021/03/16 08:56:37;;;;;;;6.20;1.77;;;;;;;5.33;73.80;101244.66;5024420;28;20305;-64
2021/03/16 08:59:04;;;;;;;6.73;1.83;;;;;;;5.34;73.38;101252.53;5022860;28;20668;-64
2021/03/16 09:01:33;;;;;;;5.27;1.77;;;;;;;5.36;73.29;101255.13;5027272;28;20214;-63
2021/03/16 09:04:09;;;;;;;5.63;1.40;;;;;;;5.38;72.94;101254.16;5023605;28;20205;-64
2021/03/16 09:06:35;;;;;;;7.50;1.70;;;;;;;5.47;73.01;101260.94;5025349;28;20222;-62
2021/03/16 09:09:01;;;;;;;3.50;1.33;;;;;;;5.49;72.59;101254.69;5022005;28;20302;-64
2021/03/16 09:11:29;;;;;;;5.10;1.70;;;;;;;5.50;72.54;101260.84;5023688;28;20253;-62
2021/03/16 09:14:10;;;;;;;7.47;1.73;;;;;;;5.54;72.78;101254.53;5025668;28;20225;-64
2021/03/16 09:16:41;;;;;;;6.13;1.77;;;;;;;5.58;73.03;101257.00;5029331;28;20313;-64
2021/03/16 09:19:09;;;;;;;5.67;1.70;;;;;;;5.61;72.77;101258.69;5027984;28;20691;-65
2021/03/16 09:21:36;;;;;;;4.03;1.60;;;;;;;5.65;72.99;101257.69;5025164;28;20670;-65
2021/03/16 09:24:04;;;;;;;4.93;1.53;;;;;;;5.68;72.93;101252.28;5029015;28;20216;-66
2021/03/16 09:26:30;;;;;;;5.73;1.77;;;;;;;5.74;72.72;101252.06;5026871;28;20222;-65
2021/03/16 09:28:56;;;;;;;4.97;2.07;;;;;;;5.80;72.40;101243.94;5024235;28;20210;-65
2021/03/16 09:31:24;;;;;;;11.53;2.10;;;;;;;5.85;72.57;101238.50;5016541;28;20211;-66
2021/03/16 09:33:50;;;;;;;5.63;2.40;;;;;;;5.87;72.43;101242.84;5020326;28;20555;-65
2021/03/16 09:36:27;;;;;;;6.10;1.60;;;;;;;5.87;72.30;101248.13;5021539;28;20226;-65
2021/03/16 09:38:54;;;;;;;7.10;1.70;;;;;;;5.88;72.09;101239.31;5025710;28;20215;-64
2021/03/16 09:41:20;;;;;;;4.83;1.53;;;;;;;5.92;72.17;101243.53;5024818;28;20213;-62
2021/03/16 09:43:47;;;;;;;5.13;1.40;;;;;;;5.97;72.08;101253.97;5022496;28;20218;-66
2021/03/16 09:46:14;;;;;;;6.37;1.73;;;;;;;6.01;72.00;101242.38;5015184;28;20637;-66
2021/03/16 09:48:46;;;;;;;4.60;1.10;;;;;;;6.05;71.88;101251.94;5021375;28;20684;-66
2021/03/16 09:51:14;;;;;;;4.70;1.20;;;;;;;6.07;71.86;101243.94;5024306;28;20249;-64
2021/03/16 09:53:45;;;;;;;4.00;1.40;;;;;;;6.07;71.61;101247.47;5021711;28;20676;-65
2021/03/16 09:56:11;;;;;;;3.93;1.10;;;;;;;6.07;71.07;101247.47;5024067;28;20234;-64
2021/03/16 09:58:38;;;;;;;4.83;1.83;;;;;;;6.06;71.11;101245.72;5021938;28;20555;-64
2021/03/16 10:01:05;;;;;;;4.13;1.33;;;;;;;6.06;70.71;101248.38;5015064;28;20259;-64
2021/03/16 10:03:31;;;;;;;7.37;1.23;;;;;;;6.09;70.72;101256.16;5022062;28;20289;-64
2021/03/16 10:06:06;;;;;;;2.40;1.10;;;;;;;6.10;70.64;101260.53;5016878;28;20237;-65
2021/03/16 10:08:32;;;;;;;3.90;1.20;;;;;;;6.14;71.01;101258.66;5021456;28;20593;-65
2021/03/16 10:10:58;;;;;;;7.30;1.90;;;;;;;6.19;70.93;101265.53;5020116;28;20207;-66
2021/03/16 10:13:33;;;;;;;4.70;1.10;;;;;;;6.25;70.15;101264.47;5021538;28;20246;-64
2021/03/16 10:16:07;;;;;;;0.83;0.83;;;;;;;6.28;70.48;101259.91;5024120;28;20228;-60
2021/03/16 10:18:38;;;;;;;2.80;0.93;;;;;;;6.32;70.36;101268.59;5023799;28;20293;-65
2021/03/16 10:21:05;;;;;;;3.20;0.70;;;;;;;6.34;70.17;101274.69;5021198;28;20271;-65
2021/03/16 10:23:31;;;;;;;2.13;0.60;;;;;;;6.37;70.26;101269.31;5025932;28;20418;-63
2021/03/16 10:25:59;;;;;;;2.57;0.77;;;;;;;6.42;70.48;101271.78;5021930;28;20325;-64
2021/03/16 10:28:31;;;;;;;5.23;1.40;;;;;;;6.50;70.17;101272.34;5024882;28;20285;-62
2021/03/16 10:31:08;;;;;;;3.40;1.47;;;;;;;6.52;70.02;101276.66;5020786;28;20218;-63
2021/03/16 10:33:34;;;;;;;1.77;0.60;;;;;;;6.55;69.55;101268.63;5023987;28;20594;-65
2021/03/16 10:36:01;;;;;;;2.03;0.97;;;;;;;6.60;69.07;101268.47;5026769;28;20227;-65
2021/03/16 10:38:28;;;;;;;4.83;0.93;;;;;;;6.63;69.10;101270.97;5021791;28;20210;-65
2021/03/16 10:40:54;;;;;;;2.97;0.90;;;;;;;6.67;68.63;101267.28;5023704;28;20206;-65
2021/03/16 10:43:20;;;;;;;4.03;1.60;;;;;;;6.70;68.67;101269.84;5020080;28;20253;-64
2021/03/16 10:45:46;;;;;;;3.43;1.33;;;;;;;6.73;68.69;101274.16;5022516;28;20761;-65
2021/03/16 10:48:12;;;;;;;2.10;1.30;;;;;;;6.71;68.61;101279.50;5022608;28;20202;-64
2021/03/16 10:50:38;;;;;;;2.47;1.50;;;;;;;6.74;68.69;101289.97;5023842;28;20207;-64
2021/03/16 10:53:04;;;;;;;1.57;1.00;;;;;;;6.72;69.01;101281.22;5022077;28;20255;-63
2021/03/16 10:55:31;;;;;;;1.63;0.80;;;;;;;6.66;68.97;101268.22;5024082;28;20225;-63
2021/03/16 10:57:57;;;;;;;1.57;1.10;;;;;;;6.57;69.23;101281.81;5022079;28;20242;-64
2021/03/16 11:00:24;;;;;;;2.73;1.20;;;;;;;6.51;69.62;101282.88;5020093;28;20204;-64
2021/03/16 11:02:50;;;;;;;2.90;1.30;;;;;;;6.52;69.67;101283.75;5021918;28;20255;-63
2021/03/16 11:05:16;;;;;;;3.87;1.77;;;;;;;6.52;70.03;101287.25;5024577;28;20326;-66
2021/03/16 11:07:42;;;;;;;3.07;1.30;;;;;;;6.54;70.40;101277.47;5022044;28;20641;-65
2021/03/16 11:10:10;;;;;;;2.33;1.20;;;;;;;6.56;70.34;101278.28;5025665;28;20210;-65
2021/03/16 11:12:37;;;;;;;2.73;1.20;;;;;;;6.60;70.61;101287.00;5017014;28;20631;-66
2021/03/16 11:15:05;;;;;;;3.20;1.90;;;;;;;6.65;71.26;101284.16;5022571;28;20271;-65
2021/03/16 11:17:32;;;;;;;3.63;1.13;;;;;;;6.67;70.75;101285.81;5023358;28;20237;-64
2021/03/16 11:19:58;;;;;;;2.00;1.13;;;;;;;6.69;70.90;101268.09;5019934;28;20202;-64
2021/03/16 11:22:24;;;;;;;2.00;1.10;;;;;;;6.73;70.37;101279.44;5022317;28;20625;-64
2021/03/16 11:24:50;;;;;;;3.03;1.10;;;;;;;6.74;69.98;101282.03;5021292;28;20225;-64
2021/03/16 11:27:16;;;;;;;2.70;0.97;;;;;;;6.73;69.94;101280.31;5021114;28;20256;-65
2021/03/16 11:29:43;;;;;;;3.13;1.10;;;;;;;6.71;69.64;101290.09;5023150;28;20206;-64
2021/03/16 11:32:09;;;;;;;3.87;1.10;;;;;;;6.63;69.54;101288.66;5022472;28;20229;-64
2021/03/16 11:34:35;;;;;;;2.77;1.00;;;;;;;6.55;69.66;101279.22;5020007;28;20213;-66